Thief River Falls, MN (56701)

9:34 PM CST on December 08, 2016 (GMT -0600)
Molstads | | Change Station

Elev 1132 ft 48.21 °N, 96.17 °W | Updated 4 seconds ago

Partly Cloudy
Partly Cloudy
0.3 °F
Feels Like 0 °F
N
0.0
Wind Variable Wind from ENE
Gusts 0.0 mph

Today
High -- | Low -- °F
--% Chance of Precip.
Yesterday
High -- | Low -- °F
Precip. -- in
Pressure 30.63 in
Visibility 10.0 miles
Clouds Clear
Windchill 0 °F
Dew Point -10 °F
Humidity 62%
Rainfall 0.00 in
Snow Depth Not available.
8:02 AM 4:31 PM
Waxing Gibbous, 69% visible
METAR KTVF 090256Z AUTO 33008KT 10SM CLR M16/M18 A3054 RMK AO2 SLP373 60000 T11611178 52003 FZRANO
Pressure 30.63 in
Visibility 10.0 miles
Clouds Clear
Windchill 0 °F
Dew Point -10 °F
Humidity 62%
Rainfall 0.00 in
Snow Depth Not available.
8:02 AM 4:31 PM
Waxing Gibbous, 69% visible
METAR KTVF 090256Z AUTO 33008KT 10SM CLR M16/M18 A3054 RMK AO2 SLP373 60000 T11611178 52003 FZRANO

10-Day Weather Forecast

Almanac

Astronomy

Dec. 08, 2016 Rise Set
Actual Time
Civil Twilight
Nautical Twilight
Astronomical Twilight
Moon
Length of Visible Light
Length of Day
Tomorrow will be .
, % of the Moon is Illuminated

Today's Extremes

State Highs State Lows

Community

WunderPhotos

Upload Photos

1,956,351 photos uploaded!

WunderBlog® & News

Nearby

Air Quality

  Air Quality AQ Index Pollutant
Not available.

Snow Depth

Station Depth Elevation

Earthquake Activity

City Distance Mag. Time & Date
Minimum magnitude displayed is 2.5.

Coastal Water Temperatures

Place Temperature

Stations

Nearby Weather Stations

Station Location Temp. Windchill Dew Point Humidity Wind Precip. Elev Updated Type
                   

Watches & Warnings

There are currently no watches in effect.